Time;durP1;ratioP1;P1;durP2;ratioP2;P2;SDS_P1;SDS_P2;PMS_P1;PMS_P2;Temp;Humidity;BMP_temperature;BMP_pressure;BME280_temperature;BME280_humidity;BME280_pressure;Samples;Min_cycle;Max_cycle;Signal;HPM_P1;HPM_P2
2023/07/18 00:01:35;;;;;;;9.63;2.15;;;;;;;16.14;100.00;102066.09;4929327;29;20758;-64
2023/07/18 00:04:01;;;;;;;5.53;1.92;;;;;;;16.13;100.00;102059.16;4923928;29;20052;-63
2023/07/18 00:06:28;;;;;;;3.20;1.48;;;;;;;16.15;100.00;102061.63;4918234;29;20087;-64
2023/07/18 00:08:54;;;;;;;7.93;2.03;;;;;;;16.11;100.00;102062.91;4918808;29;20150;-64
2023/07/18 00:11:22;;;;;;;6.70;1.70;;;;;;;16.13;100.00;102064.44;4914521;29;20131;-63
2023/07/18 00:13:49;;;;;;;5.97;1.90;;;;;;;16.10;100.00;102059.44;4922725;29;20060;-64
2023/07/18 00:16:15;;;;;;;10.13;2.03;;;;;;;16.08;100.00;102057.94;4920363;29;20109;-63
2023/07/18 00:18:42;;;;;;;5.35;1.70;;;;;;;16.03;100.00;102055.72;4930131;29;20460;-62
2023/07/18 00:21:08;;;;;;;6.78;2.08;;;;;;;16.02;100.00;102052.25;4915482;29;20056;-64
2023/07/18 00:23:34;;;;;;;5.20;2.17;;;;;;;15.96;100.00;102052.03;4926589;29;20134;-68
2023/07/18 00:26:01;;;;;;;8.75;1.95;;;;;;;15.95;100.00;102050.38;4922717;29;20083;-67
2023/07/18 00:28:28;;;;;;;4.43;1.80;;;;;;;15.94;100.00;102059.31;4928687;29;20072;-68
2023/07/18 00:30:55;;;;;;;7.30;2.17;;;;;;;15.93;100.00;102049.69;4926978;29;20052;-67
2023/07/18 00:33:21;;;;;;;5.68;2.00;;;;;;;15.94;100.00;102054.00;4923482;29;20094;-67
2023/07/18 00:35:48;;;;;;;7.10;1.98;;;;;;;15.92;100.00;102059.44;4908131;29;20062;-68
2023/07/18 00:38:14;;;;;;;5.10;1.95;;;;;;;15.86;100.00;102043.34;4919921;29;20062;-68
2023/07/18 00:40:41;;;;;;;4.47;1.65;;;;;;;15.82;100.00;102050.75;4930191;29;20134;-68
2023/07/18 00:43:14;;;;;;;4.93;1.60;;;;;;;15.75;100.00;102039.94;4922989;29;20516;-69
2023/07/18 00:45:43;;;;;;;6.00;2.03;;;;;;;15.79;100.00;102051.88;4925411;29;20052;-68
2023/07/18 00:48:10;;;;;;;6.22;1.92;;;;;;;15.69;100.00;102047.63;4923488;29;20055;-67
2023/07/18 00:50:37;;;;;;;6.40;1.60;;;;;;;15.69;100.00;102050.25;4916946;28;20171;-68
2023/07/18 00:53:04;;;;;;;6.45;2.30;;;;;;;15.66;100.00;102059.34;4930036;29;20058;-67
2023/07/18 00:55:31;;;;;;;5.15;1.70;;;;;;;15.66;100.00;102055.84;4924089;29;20497;-67
2023/07/18 00:57:58;;;;;;;4.97;1.52;;;;;;;15.61;100.00;102053.66;4925580;29;20051;-67
2023/07/18 01:00:24;;;;;;;6.47;1.73;;;;;;;15.56;100.00;102048.81;4921166;29;20094;-67
2023/07/18 01:02:51;;;;;;;5.70;1.80;;;;;;;15.52;100.00;102049.25;4924501;29;20086;-67
2023/07/18 01:05:19;;;;;;;7.47;2.03;;;;;;;15.47;100.00;102051.53;4924039;29;20063;-67
2023/07/18 01:07:47;;;;;;;6.07;1.88;;;;;;;15.41;100.00;102045.84;4919583;28;20056;-67
2023/07/18 01:10:23;;;;;;;5.10;1.80;;;;;;;15.36;100.00;102049.91;4927630;29;20559;-68
2023/07/18 01:12:54;;;;;;;7.95;1.85;;;;;;;15.30;100.00;102056.63;4914349;29;20369;-67
2023/07/18 01:15:22;;;;;;;3.22;1.63;;;;;;;15.30;100.00;102053.16;4921109;29;20043;-68
2023/07/18 01:17:49;;;;;;;3.60;1.55;;;;;;;15.20;100.00;102037.34;4916152;29;20745;-66
2023/07/18 01:20:23;;;;;;;4.63;1.80;;;;;;;15.25;100.00;102058.03;4921692;29;20063;-67
2023/07/18 01:22:53;;;;;;;4.70;1.63;;;;;;;15.21;100.00;102055.69;4921555;29;20143;-67
2023/07/18 01:25:20;;;;;;;5.63;1.83;;;;;;;15.19;100.00;102051.50;4926509;29;20054;-68
2023/07/18 01:27:49;;;;;;;6.43;1.80;;;;;;;15.15;100.00;102053.66;4928483;29;20083;-63
2023/07/18 01:30:17;;;;;;;;;;;;;;;15.14;100.00;102048.50;4918311;29;20536;-63
2023/07/18 01:32:44;;;;;;;3.88;1.80;;;;;;;15.12;100.00;102045.16;4924128;29;20354;-62
2023/07/18 01:35:10;;;;;;;4.78;1.63;;;;;;;15.07;100.00;102042.94;4918879;29;20071;-63
2023/07/18 01:37:38;;;;;;;4.95;1.73;;;;;;;15.06;100.00;102040.47;4929229;29;20535;-63
2023/07/18 01:40:06;;;;;;;3.88;1.80;;;;;;;15.03;100.00;102039.78;4905986;28;20575;-62
2023/07/18 01:42:33;;;;;;;;;;;;;;;15.01;100.00;102041.75;4927440;29;20051;-63
2023/07/18 01:44:59;;;;;;;5.00;1.50;;;;;;;14.99;100.00;102040.22;4917744;29;20299;-62
2023/07/18 01:47:26;;;;;;;5.40;1.50;;;;;;;14.96;100.00;102032.59;4918053;29;20428;-63
2023/07/18 01:49:52;;;;;;;3.05;1.50;;;;;;;14.93;100.00;102022.31;4916589;29;20405;-62
2023/07/18 01:52:19;;;;;;;3.78;1.42;;;;;;;14.89;100.00;102029.69;4921559;29;20171;-63
2023/07/18 01:54:45;;;;;;;5.63;1.63;;;;;;;14.85;100.00;102030.13;4931675;29;20055;-63
2023/07/18 01:57:12;;;;;;;4.53;1.98;;;;;;;14.82;100.00;102021.50;4913491;29;20048;-63
2023/07/18 01:59:38;;;;;;;4.63;1.80;;;;;;;14.80;100.00;102018.19;4910536;29;20064;-63
2023/07/18 02:02:06;;;;;;;3.70;1.40;;;;;;;14.75;100.00;102025.69;4920923;29;20138;-63
2023/07/18 02:04:33;;;;;;;3.33;1.48;;;;;;;14.70;100.00;102017.41;4915250;28;20088;-64
2023/07/18 02:06:59;;;;;;;4.85;1.55;;;;;;;14.66;100.00;102010.72;4922511;29;20934;-65
2023/07/18 02:09:25;;;;;;;6.30;1.85;;;;;;;14.67;100.00;102016.84;4925112;28;20135;-62
2023/07/18 02:11:52;;;;;;;4.22;1.63;;;;;;;14.65;100.00;102021.44;4927059;29;20134;-62
2023/07/18 02:14:20;;;;;;;4.13;1.50;;;;;;;14.65;100.00;102013.53;4919104;29;20531;-64
2023/07/18 02:16:46;;;;;;;4.90;1.40;;;;;;;14.62;100.00;102011.97;4930556;29;20420;-65
2023/07/18 02:19:13;;;;;;;6.78;1.75;;;;;;;14.60;100.00;102020.06;4930449;29;20083;-63
2023/07/18 02:21:39;;;;;;;4.70;1.80;;;;;;;14.60;100.00;102013.94;4921530;29;20147;-63
2023/07/18 02:24:06;;;;;;;4.05;1.48;;;;;;;14.61;100.00;102013.78;4931609;29;20044;-63
2023/07/18 02:26:32;;;;;;;4.57;1.50;;;;;;;14.60;100.00;102009.50;4915260;29;20469;-62
2023/07/18 02:28:59;;;;;;;6.85;1.50;;;;;;;14.62;100.00;102011.97;4930518;29;20157;-63
2023/07/18 02:31:25;;;;;;;5.95;1.70;;;;;;;14.61;100.00;101999.78;4924315;29;20453;-62
2023/07/18 02:33:52;;;;;;;4.13;1.30;;;;;;;14.56;100.00;102000.22;4931749;29;20048;-62
2023/07/18 02:36:21;;;;;;;3.70;1.60;;;;;;;14.55;100.00;102002.97;4930504;29;20051;-63
2023/07/18 02:38:48;;;;;;;2.78;1.63;;;;;;;14.52;100.00;102006.69;4921154;29;20484;-65
2023/07/18 02:41:14;;;;;;;2.00;1.35;;;;;;;14.46;100.00;101995.88;4927384;29;20556;-62
2023/07/18 02:43:41;;;;;;;5.18;1.70;;;;;;;14.41;100.00;101996.31;4927207;28;20135;-63
2023/07/18 02:46:07;;;;;;;6.43;1.80;;;;;;;14.38;100.00;102001.88;4932655;29;20060;-63
2023/07/18 02:48:34;;;;;;;3.70;1.60;;;;;;;14.36;100.00;102003.84;4931840;29;20056;-63
2023/07/18 02:51:00;;;;;;;5.35;1.65;;;;;;;14.35;100.00;102002.19;4931365;29;20060;-64
2023/07/18 02:53:26;;;;;;;3.83;1.45;;;;;;;14.32;100.00;101998.00;4928123;29;20052;-63
2023/07/18 02:55:53;;;;;;;3.53;1.50;;;;;;;14.31;100.00;102000.78;4921574;29;20048;-64
2023/07/18 02:58:23;;;;;;;5.60;1.77;;;;;;;14.32;100.00;102003.28;4933271;29;20217;-65
2023/07/18 03:00:53;;;;;;;5.75;1.80;;;;;;;14.31;100.00;101992.84;4924967;29;20091;-64
2023/07/18 03:03:21;;;;;;;7.55;1.80;;;;;;;14.28;100.00;101990.53;4932549;29;20052;-65
2023/07/18 03:05:53;;;;;;;4.00;1.40;;;;;;;14.29;100.00;101986.88;4924374;28;20171;-65
2023/07/18 03:08:19;;;;;;;3.10;1.55;;;;;;;14.27;100.00;101986.19;4916667;29;20134;-66
2023/07/18 03:10:47;;;;;;;3.83;1.50;;;;;;;14.26;100.00;101985.38;4932538;29;20063;-63
2023/07/18 03:13:14;;;;;;;2.40;1.38;;;;;;;14.23;100.00;101985.69;4927611;29;20051;-63
2023/07/18 03:15:40;;;;;;;4.60;2.22;;;;;;;14.23;100.00;101993.59;4931353;29;20314;-64
2023/07/18 03:18:07;;;;;;;5.50;1.73;;;;;;;14.22;100.00;101997.19;4924881;29;20513;-62
2023/07/18 03:20:34;;;;;;;5.20;1.80;;;;;;;14.20;100.00;101997.31;4927476;29;20056;-62
2023/07/18 03:23:01;;;;;;;2.25;1.70;;;;;;;14.17;100.00;102002.91;4920528;28;20059;-62
2023/07/18 03:25:28;;;;;;;3.83;1.75;;;;;;;14.17;100.00;102002.03;4932231;29;20087;-62
2023/07/18 03:27:54;;;;;;;5.70;2.08;;;;;;;14.12;100.00;101997.22;4931298;29;20055;-65
2023/07/18 03:30:21;;;;;;;5.03;1.98;;;;;;;14.11;100.00;101999.97;4912424;29;20137;-63
2023/07/18 03:32:49;;;;;;;3.90;1.60;;;;;;;14.09;100.00;101997.47;4931747;29;20051;-64
2023/07/18 03:35:16;;;;;;;4.75;1.85;;;;;;;14.07;100.00;102004.69;4921279;29;20047;-63
2023/07/18 03:37:42;;;;;;;5.25;2.17;;;;;;;14.01;100.00;102011.41;4926328;29;20544;-63
2023/07/18 03:40:10;;;;;;;4.20;1.85;;;;;;;14.03;100.00;102006.81;4924254;28;20539;-63
2023/07/18 03:42:37;;;;;;;4.67;1.83;;;;;;;14.01;100.00;102016.66;4931518;29;20099;-62
2023/07/18 03:45:04;;;;;;;3.72;1.83;;;;;;;14.00;100.00;102006.25;4934069;29;20127;-62
2023/07/18 03:47:31;;;;;;;4.65;1.98;;;;;;;13.99;100.00;102015.94;4921288;29;20102;-65
2023/07/18 03:49:57;;;;;;;4.78;2.10;;;;;;;13.98;100.00;102022.22;4923179;29;20048;-63
2023/07/18 03:52:24;;;;;;;5.65;2.30;;;;;;;13.96;100.00;102018.88;4923092;29;20047;-63
2023/07/18 03:54:50;;;;;;;6.75;2.50;;;;;;;13.95;100.00;102017.19;4929941;29;20059;-65
2023/07/18 03:57:17;;;;;;;3.97;2.13;;;;;;;13.93;100.00;102020.97;4918390;29;20131;-63
2023/07/18 03:59:43;;;;;;;8.32;2.60;;;;;;;13.93;100.00;102018.31;4930118;29;20056;-62
2023/07/18 04:02:10;;;;;;;5.22;2.20;;;;;;;13.87;100.00;102011.78;4920730;29;20087;-64
2023/07/18 04:04:37;;;;;;;4.00;2.03;;;;;;;13.89;100.00;102015.13;4920869;29;20044;-62
2023/07/18 04:07:03;;;;;;;6.63;2.28;;;;;;;13.88;100.00;102005.56;4928668;29;20111;-62
2023/07/18 04:09:30;;;;;;;3.72;1.75;;;;;;;13.86;100.00;101996.97;4923916;29;20139;-63
2023/07/18 04:11:57;;;;;;;6.15;2.10;;;;;;;13.87;100.00;102000.41;4929411;29;20052;-62
2023/07/18 04:14:23;;;;;;;6.47;1.90;;;;;;;13.85;100.00;101998.75;4921797;28;20476;-63
2023/07/18 04:16:51;;;;;;;3.63;2.00;;;;;;;13.87;100.00;101982.78;4922981;29;20493;-63
2023/07/18 04:19:18;;;;;;;7.43;2.05;;;;;;;13.89;100.00;101990.56;4923479;29;20691;-63
2023/07/18 04:21:44;;;;;;;3.15;1.67;;;;;;;13.83;100.00;101987.50;4917046;29;20493;-62
2023/07/18 04:24:11;;;;;;;7.03;2.05;;;;;;;13.80;100.00;101987.78;4929646;29;20052;-63
2023/07/18 04:26:37;;;;;;;5.43;1.90;;;;;;;13.82;100.00;101977.13;4924182;28;20053;-62
2023/07/18 04:29:04;;;;;;;7.78;3.30;;;;;;;13.85;100.00;101980.28;4907915;29;20066;-65
2023/07/18 04:31:31;;;;;;;4.93;1.90;;;;;;;13.88;100.00;101983.59;4916193;29;20418;-64
2023/07/18 04:33:59;;;;;;;3.67;1.98;;;;;;;13.88;100.00;101989.75;4928173;29;20044;-62
2023/07/18 04:36:25;;;;;;;4.72;2.22;;;;;;;13.88;100.00;101983.59;4910934;29;20086;-63
2023/07/18 04:38:52;;;;;;;5.97;2.15;;;;;;;13.87;100.00;101982.78;4924233;29;20051;-62
2023/07/18 04:41:18;;;;;;;4.55;2.17;;;;;;;13.89;100.00;101975.56;4931223;29;20408;-64
2023/07/18 04:43:45;;;;;;;8.18;2.38;;;;;;;13.92;100.00;101982.38;4919999;29;20075;-65
2023/07/18 04:46:11;;;;;;;3.75;1.70;;;;;;;13.97;100.00;101980.97;4921935;29;20055;-64
2023/07/18 04:48:38;;;;;;;6.40;2.45;;;;;;;14.00;100.00;101974.59;4917010;29;20142;-62
2023/07/18 04:51:05;;;;;;;5.63;2.40;;;;;;;13.99;100.00;101979.00;4929098;29;20098;-64
2023/07/18 04:53:32;;;;;;;3.05;1.98;;;;;;;14.06;100.00;101981.13;4928570;29;20055;-63
2023/07/18 04:56:00;;;;;;;5.88;2.17;;;;;;;14.08;100.00;101979.16;4922067;29;20202;-63
2023/07/18 04:58:27;;;;;;;6.93;2.20;;;;;;;14.10;100.00;101979.84;4922165;29;20501;-62
2023/07/18 05:00:55;;;;;;;6.43;2.35;;;;;;;14.10;100.00;101983.31;4920197;29;20103;-63
2023/07/18 05:03:22;;;;;;;4.97;2.00;;;;;;;14.12;100.00;101988.47;4925652;29;20052;-63
2023/07/18 05:05:48;;;;;;;4.78;2.40;;;;;;;14.13;100.00;101980.41;4919778;29;20059;-64
2023/07/18 05:08:16;;;;;;;4.95;2.47;;;;;;;14.17;100.00;101983.56;4912662;29;20107;-65
2023/07/18 05:10:43;;;;;;;10.47;2.80;;;;;;;14.20;100.00;101989.41;4924554;29;20082;-64
2023/07/18 05:13:10;;;;;;;4.68;2.28;;;;;;;14.25;100.00;101991.66;4914388;29;20288;-65
2023/07/18 05:15:36;;;;;;;5.88;2.75;;;;;;;14.31;100.00;101990.22;4928115;29;20079;-64
2023/07/18 05:18:03;;;;;;;6.28;3.45;;;;;;;14.37;100.00;101985.22;4923523;29;20059;-62
2023/07/18 05:20:30;;;;;;;7.25;3.90;;;;;;;14.42;100.00;101985.59;4929724;29;20142;-62
2023/07/18 05:22:58;;;;;;;11.05;4.85;;;;;;;14.48;100.00;101984.19;4906641;29;20454;-64
2023/07/18 05:25:25;;;;;;;9.90;4.68;;;;;;;14.59;100.00;101991.16;4923302;29;20103;-63
2023/07/18 05:27:51;;;;;;;14.13;5.20;;;;;;;14.60;100.00;101975.19;4922091;29;20055;-63
2023/07/18 05:30:19;;;;;;;14.13;5.35;;;;;;;14.68;100.00;101985.03;4926169;29;20051;-63
2023/07/18 05:32:50;;;;;;;11.30;5.32;;;;;;;14.73;100.00;101977.47;4926861;29;20090;-62
2023/07/18 05:35:16;;;;;;;9.00;4.63;;;;;;;14.82;100.00;101978.44;4905323;29;20147;-65
2023/07/18 05:37:43;;;;;;;8.13;4.88;;;;;;;14.89;100.00;101976.84;4927314;29;20051;-64
2023/07/18 05:40:11;;;;;;;9.32;4.45;;;;;;;14.96;100.00;101982.41;4916496;29;20134;-64
2023/07/18 05:42:39;;;;;;;10.85;5.40;;;;;;;15.01;100.00;101975.69;4929457;29;20057;-65
2023/07/18 05:45:07;;;;;;;9.45;5.00;;;;;;;15.03;100.00;101970.25;4923160;29;20147;-63
2023/07/18 05:47:35;;;;;;;11.18;5.07;;;;;;;15.06;100.00;101975.25;4925359;29;20130;-62
2023/07/18 05:50:04;;;;;;;7.85;4.80;;;;;;;15.07;100.00;101976.88;4927594;29;20110;-63
2023/07/18 05:52:31;;;;;;;12.65;5.72;;;;;;;15.12;100.00;101979.09;4915591;28;20122;-64
2023/07/18 05:54:58;;;;;;;11.20;5.55;;;;;;;15.12;100.00;101976.47;4921788;29;20082;-63
2023/07/18 05:57:24;;;;;;;11.70;5.72;;;;;;;15.18;100.00;101984.63;4922196;28;20094;-63
2023/07/18 05:59:51;;;;;;;11.25;5.90;;;;;;;15.19;100.00;101972.22;4925564;29;20078;-65
2023/07/18 06:02:17;;;;;;;10.18;5.18;;;;;;;15.24;100.00;101975.28;4921101;29;20052;-65
2023/07/18 06:04:44;;;;;;;12.95;5.15;;;;;;;15.28;100.00;101978.44;4923057;29;20104;-66
2023/07/18 06:07:11;;;;;;;9.90;5.10;;;;;;;15.38;100.00;101981.84;4908661;29;20051;-63
2023/07/18 06:09:38;;;;;;;7.65;4.57;;;;;;;15.46;100.00;101970.53;4909771;29;20481;-64
2023/07/18 06:12:06;;;;;;;9.40;4.70;;;;;;;15.51;100.00;101986.78;4926516;29;20110;-64
2023/07/18 06:14:33;;;;;;;14.77;5.13;;;;;;;15.55;100.00;101982.84;4915924;28;20138;-64
2023/07/18 06:16:59;;;;;;;10.43;4.93;;;;;;;15.59;100.00;101989.50;4911908;29;20738;-64
2023/07/18 06:19:26;;;;;;;9.13;4.82;;;;;;;15.60;100.00;101985.88;4902617;29;20063;-64
2023/07/18 06:21:53;;;;;;;9.68;4.60;;;;;;;15.68;100.00;101982.47;4924790;29;20051;-64
2023/07/18 06:24:20;;;;;;;12.30;4.35;;;;;;;15.67;100.00;101979.00;4923664;29;20082;-64
2023/07/18 06:26:49;;;;;;;9.73;4.43;;;;;;;15.77;100.00;101986.88;4924180;29;20376;-64
2023/07/18 06:29:18;;;;;;;11.18;4.32;;;;;;;15.84;100.00;101987.94;4931331;29;20047;-64
2023/07/18 06:31:46;;;;;;;8.80;4.22;;;;;;;15.91;100.00;101991.63;4922611;29;20497;-64
2023/07/18 06:34:12;;;;;;;8.98;4.15;;;;;;;15.96;100.00;101988.53;4920707;29;20044;-64
2023/07/18 06:36:39;;;;;;;11.82;4.40;;;;;;;16.05;100.00;101992.06;4919257;29;20103;-63
2023/07/18 06:39:05;;;;;;;10.40;4.05;;;;;;;16.11;100.00;101992.31;4929076;29;20477;-64
2023/07/18 06:41:33;;;;;;;9.10;4.22;;;;;;;16.22;100.00;101993.84;4927555;29;20065;-65
2023/07/18 06:44:00;;;;;;;10.32;3.97;;;;;;;16.30;100.00;101995.72;4922144;29;20055;-64
2023/07/18 06:46:27;;;;;;;9.30;4.25;;;;;;;16.34;100.00;101989.94;4929643;29;20060;-64
2023/07/18 06:48:53;;;;;;;9.32;3.95;;;;;;;16.40;100.00;101989.31;4926648;29;20048;-63
2023/07/18 06:51:20;;;;;;;9.98;4.68;;;;;;;16.45;100.00;101999.47;4927037;29;20058;-63
2023/07/18 06:53:47;;;;;;;6.80;4.13;;;;;;;16.48;100.00;101987.72;4925759;29;20086;-65
2023/07/18 06:56:13;;;;;;;9.95;4.00;;;;;;;16.47;100.00;101983.44;4927689;29;20087;-64
2023/07/18 06:58:41;;;;;;;9.00;4.32;;;;;;;16.47;100.00;101991.38;4918144;29;20078;-65
2023/07/18 07:01:08;;;;;;;8.52;3.70;;;;;;;16.55;100.00;101980.81;4922645;29;20051;-64
2023/07/18 07:03:36;;;;;;;11.88;4.15;;;;;;;16.60;100.00;101979.34;4927446;29;20090;-64
2023/07/18 07:06:10;;;;;;;5.78;3.58;;;;;;;16.72;100.00;101987.88;4919204;29;20067;-64
2023/07/18 07:08:36;;;;;;;11.50;4.43;;;;;;;16.74;100.00;101987.69;4932614;29;20494;-66
2023/07/18 07:11:04;;;;;;;9.98;4.10;;;;;;;16.79;100.00;101980.91;4915141;29;20070;-64
2023/07/18 07:13:31;;;;;;;8.38;3.80;;;;;;;16.88;100.00;101973.06;4930470;29;20460;-64
2023/07/18 07:15:58;;;;;;;8.50;3.53;;;;;;;16.94;100.00;101972.41;4923072;29;20080;-64
2023/07/18 07:18:26;;;;;;;9.50;3.95;;;;;;;16.99;98.59;101975.41;4925581;29;20469;-64
2023/07/18 07:20:53;;;;;;;9.50;3.38;;;;;;;17.01;95.45;101973.41;4929761;29;20052;-65
2023/07/18 07:23:20;;;;;;;6.15;3.25;;;;;;;17.08;96.59;101971.78;4919866;29;20800;-63
2023/07/18 07:25:47;;;;;;;8.30;3.20;;;;;;;17.11;95.07;101974.13;4927526;29;20135;-64
2023/07/18 07:28:14;;;;;;;7.25;3.13;;;;;;;17.19;94.47;101973.31;4921845;29;20047;-63
2023/07/18 07:30:40;;;;;;;10.65;3.28;;;;;;;17.21;92.54;101968.69;4932040;29;20127;-64
2023/07/18 07:33:07;;;;;;;6.18;3.05;;;;;;;17.30;93.80;101965.03;4928505;29;20051;-63
2023/07/18 07:35:33;;;;;;;7.75;4.03;;;;;;;17.27;90.78;101965.38;4922752;29;20052;-64
2023/07/18 07:38:00;;;;;;;7.40;3.65;;;;;;;17.29;89.67;101960.75;4925974;29;20087;-66
2023/07/18 07:40:26;;;;;;;8.35;4.00;;;;;;;17.31;87.71;101955.28;4920982;29;20055;-64
2023/07/18 07:42:53;;;;;;;6.65;2.95;;;;;;;17.37;91.12;101957.28;4931499;29;20058;-65
2023/07/18 07:45:21;;;;;;;8.63;4.00;;;;;;;17.47;91.39;101957.94;4923215;29;20064;-65
2023/07/18 07:47:47;;;;;;;10.60;3.93;;;;;;;17.47;89.67;101957.94;4930995;29;20273;-65
2023/07/18 07:50:16;;;;;;;8.45;3.60;;;;;;;17.56;90.26;101956.13;4929737;29;20321;-67
2023/07/18 07:52:43;;;;;;;10.63;3.47;;;;;;;17.66;86.89;101964.78;4917093;29;20056;-64
2023/07/18 07:55:11;;;;;;;10.20;3.10;;;;;;;17.67;85.22;101954.97;4930275;29;20866;-67
2023/07/18 07:57:38;;;;;;;7.60;3.17;;;;;;;17.71;87.06;101962.44;4925042;29;20051;-64
2023/07/18 08:00:07;;;;;;;6.90;2.88;;;;;;;17.80;87.30;101955.31;4922417;29;20102;-63
2023/07/18 08:02:34;;;;;;;7.50;3.13;;;;;;;17.87;85.08;101956.31;4920138;29;20052;-64
2023/07/18 08:05:00;;;;;;;5.63;2.60;;;;;;;17.90;83.39;101952.53;4917881;29;20087;-66
2023/07/18 08:07:27;;;;;;;7.68;2.63;;;;;;;17.94;82.83;101952.00;4920667;29;20047;-64
2023/07/18 08:09:54;;;;;;;9.68;2.80;;;;;;;18.07;86.09;101950.66;4930148;29;20138;-64
2023/07/18 08:12:21;;;;;;;5.13;2.20;;;;;;;18.12;84.19;101945.69;4930343;29;20461;-63
2023/07/18 08:14:48;;;;;;;5.10;2.22;;;;;;;18.16;85.46;101947.00;4918715;29;20155;-66
2023/07/18 08:17:16;;;;;;;6.43;2.30;;;;;;;18.29;87.36;101949.16;4928796;29;20134;-64
2023/07/18 08:19:43;;;;;;;5.97;2.22;;;;;;;18.32;81.69;101943.47;4915101;29;20357;-64
2023/07/18 08:22:09;;;;;;;4.13;1.63;;;;;;;18.48;83.41;101934.63;4926676;29;20087;-64
2023/07/18 08:24:36;;;;;;;6.88;1.90;;;;;;;18.47;76.77;101931.16;4925061;29;20079;-64
2023/07/18 08:27:03;;;;;;;4.10;1.40;;;;;;;18.61;78.63;101934.91;4928512;29;20048;-64
2023/07/18 08:29:32;;;;;;;5.97;1.48;;;;;;;18.67;77.22;101928.91;4930700;29;20099;-63
2023/07/18 08:31:59;;;;;;;5.32;1.40;;;;;;;18.75;75.68;101931.50;4920831;29;20052;-64
2023/07/18 08:34:25;;;;;;;5.35;1.85;;;;;;;18.88;75.30;101940.81;4925789;29;20056;-66
2023/07/18 08:36:52;;;;;;;5.00;1.30;;;;;;;19.04;73.34;101938.06;4922360;29;20075;-64
2023/07/18 08:39:19;;;;;;;2.95;1.25;;;;;;;19.31;73.43;101930.56;4931200;29;20058;-65
2023/07/18 08:41:49;;;;;;;3.70;1.38;;;;;;;19.60;68.64;101937.84;4918489;29;20048;-64
2023/07/18 08:44:16;;;;;;;3.35;1.30;;;;;;;19.79;67.47;101939.19;4926724;29;20067;-64
2023/07/18 08:46:45;;;;;;;3.97;1.07;;;;;;;20.03;66.67;101937.31;4923655;29;20055;-63
2023/07/18 08:49:14;;;;;;;3.88;1.30;;;;;;;20.26;65.23;101924.72;4919211;29;20509;-63
2023/07/18 08:51:44;;;;;;;4.32;1.33;;;;;;;20.44;62.64;101923.53;4929529;29;20513;-65
2023/07/18 08:54:12;;;;;;;3.13;1.30;;;;;;;20.62;62.35;101926.69;4901379;29;20064;-64
2023/07/18 08:56:41;;;;;;;;;;;;;;;20.88;62.88;101917.34;4930910;29;20424;-66
2023/07/18 08:59:07;;;;;;;4.90;1.13;;;;;;;21.28;63.22;101915.91;4913040;29;19967;-63
2023/07/18 09:01:35;;;;;;;4.22;1.38;;;;;;;21.44;60.18;101911.34;4920161;29;20063;-64
2023/07/18 09:04:01;;;;;;;2.80;1.10;;;;;;;21.56;57.08;101911.66;4923184;29;20106;-64
2023/07/18 09:06:28;;;;;;;4.35;1.30;;;;;;;21.77;57.86;101902.78;4924903;29;20055;-64
2023/07/18 09:08:55;;;;;;;1.98;0.82;;;;;;;21.98;57.47;101897.38;4929025;29;20047;-63
2023/07/18 09:11:21;;;;;;;3.83;1.00;;;;;;;22.07;55.90;101903.38;4922901;29;20051;-65
2023/07/18 09:13:49;;;;;;;4.38;1.00;;;;;;;22.04;54.65;101899.28;4906098;29;20056;-65
2023/07/18 09:16:17;;;;;;;5.35;1.08;;;;;;;21.91;54.46;101892.00;4915548;29;20040;-64
2023/07/18 09:18:53;;;;;;;;;;;;;;;21.99;54.33;101899.03;4925091;29;20500;-65
2023/07/18 09:21:21;;;;;;;3.58;0.77;;;;;;;22.25;54.74;101905.59;4929783;29;19985;-64
2023/07/18 09:23:50;;;;;;;5.85;1.25;;;;;;;22.04;53.76;101893.09;4916809;29;20047;-65
2023/07/18 09:26:19;;;;;;;9.43;1.38;;;;;;;22.26;54.25;101885.84;4927838;29;20088;-65
2023/07/18 09:28:47;;;;;;;2.78;1.02;;;;;;;22.32;53.72;101890.41;4916991;29;20051;-64
2023/07/18 09:31:17;;;;;;;4.20;0.90;;;;;;;22.50;53.77;101892.53;4921695;29;20087;-63
2023/07/18 09:33:46;;;;;;;4.93;1.00;;;;;;;22.60;52.23;101894.81;4918446;29;20104;-64
2023/07/18 09:36:19;;;;;;;2.45;0.90;;;;;;;22.75;51.61;101890.16;4928048;29;20132;-64
2023/07/18 09:38:46;;;;;;;2.17;1.00;;;;;;;22.65;51.92;101895.06;4927616;29;20050;-64
2023/07/18 09:41:16;;;;;;;5.00;0.85;;;;;;;23.02;51.86;101896.41;4923497;29;20560;-65
2023/07/18 09:43:45;;;;;;;4.05;1.00;;;;;;;23.20;52.12;101895.81;4922831;29;20126;-67
2023/07/18 09:46:15;;;;;;;2.28;0.90;;;;;;;23.29;51.03;101891.94;4918415;29;20047;-65
2023/07/18 09:48:44;;;;;;;1.48;0.82;;;;;;;23.38;50.50;101883.69;4928775;29;20139;-65
2023/07/18 09:51:15;;;;;;;1.88;0.80;;;;;;;23.39;49.50;101888.03;4922285;29;20472;-65
2023/07/18 09:53:45;;;;;;;2.80;0.90;;;;;;;23.22;48.94;101884.91;4911871;29;20047;-62
2023/07/18 09:56:14;;;;;;;4.97;1.10;;;;;;;23.43;50.73;101875.88;4913687;29;20306;-62
2023/07/18 09:58:48;;;;;;;2.10;0.90;;;;;;;23.35;47.87;101878.75;4918828;29;20458;-64
2023/07/18 10:01:20;;;;;;;1.70;0.70;;;;;;;23.41;48.35;101873.41;4922696;29;20056;-66
2023/07/18 10:03:54;;;;;;;3.03;0.80;;;;;;;23.41;49.18;101877.94;4922280;29;20082;-65
2023/07/18 10:06:21;;;;;;;1.73;0.70;;;;;;;23.44;48.98;101875.69;4926388;29;20107;-66
2023/07/18 10:08:48;;;;;;;2.25;0.77;;;;;;;23.63;48.67;101870.50;4915807;29;20182;-65
2023/07/18 10:11:14;;;;;;;2.30;0.90;;;;;;;23.77;47.93;101877.47;4921296;29;20512;-65
2023/07/18 10:14:04;;;;;;;1.83;0.70;;;;;;;23.68;46.79;101863.50;4920635;29;20103;-64
2023/07/18 10:16:34;;;;;;;2.03;0.68;;;;;;;23.97;46.64;101871.28;4926073;29;20056;-67
2023/07/18 10:19:17;;;;;;;1.98;0.75;;;;;;;23.93;46.27;101860.16;4924585;29;20048;-66
2023/07/18 10:21:46;;;;;;;2.00;0.80;;;;;;;24.45;48.72;101857.50;4926073;29;20098;-64
2023/07/18 10:24:23;;;;;;;0.98;0.50;;;;;;;24.47;45.21;101855.44;4925853;29;20055;-66
2023/07/18 10:26:58;;;;;;;3.97;0.70;;;;;;;24.50;46.06;101852.31;4925659;29;20138;-65
2023/07/18 10:29:34;;;;;;;3.65;0.77;;;;;;;24.53;45.20;101848.44;4927047;29;20082;-65
2023/07/18 10:32:00;;;;;;;1.98;0.70;;;;;;;24.83;46.17;101843.28;4923367;29;20111;-66
2023/07/18 10:34:27;;;;;;;1.05;0.68;;;;;;;24.85;44.13;101833.16;4930818;29;20079;-66
2023/07/18 10:36:59;;;;;;;2.83;0.60;;;;;;;25.01;44.79;101832.63;4920793;29;20055;-65
2023/07/18 10:39:49;;;;;;;4.03;0.85;;;;;;;25.49;45.23;101836.59;4923942;29;20067;-65
2023/07/18 10:42:21;;;;;;;2.15;0.70;;;;;;;25.32;43.61;101830.13;4923109;29;20473;-65
2023/07/18 10:44:48;;;;;;;1.88;0.88;;;;;;;25.18;42.11;101834.78;4927665;29;20075;-66
2023/07/18 10:47:17;;;;;;;3.72;0.75;;;;;;;25.16;42.24;101831.47;4923580;29;20482;-64
2023/07/18 10:49:46;;;;;;;1.98;0.75;;;;;;;25.22;42.42;101825.25;4931498;29;20055;-65
2023/07/18 10:52:13;;;;;;;0.65;0.60;;;;;;;25.42;44.48;101819.69;4923024;29;20056;-64
2023/07/18 10:54:49;;;;;;;2.15;0.82;;;;;;;25.45;44.06;101814.72;4918186;28;20641;-65
2023/07/18 10:57:16;;;;;;;5.30;0.90;;;;;;;25.52;42.30;101811.13;4928949;29;20048;-65
2023/07/18 10:59:45;;;;;;;3.78;0.70;;;;;;;25.89;43.49;101803.91;4926083;29;20107;-65
2023/07/18 11:02:12;;;;;;;3.30;0.60;;;;;;;26.04;41.24;101798.19;4927412;29;20060;-63
2023/07/18 11:04:39;;;;;;;1.50;0.80;;;;;;;26.40;43.22;101804.53;4916312;29;20137;-66
2023/07/18 11:07:05;;;;;;;2.50;0.75;;;;;;;26.23;41.99;101794.41;4921113;29;20056;-66
2023/07/18 11:09:32;;;;;;;2.35;0.60;;;;;;;26.46;41.59;101786.66;4927384;29;20092;-65
2023/07/18 11:12:00;;;;;;;2.60;0.68;;;;;;;26.74;41.19;101778.81;4924662;29;20044;-63
2023/07/18 11:14:37;;;;;;;1.98;0.50;;;;;;;26.89;42.11;101786.44;4929593;29;20393;-64
2023/07/18 11:17:12;;;;;;;0.77;0.50;;;;;;;26.87;40.22;101779.66;4920754;29;20055;-63
2023/07/18 11:19:39;;;;;;;1.90;0.63;;;;;;;26.89;40.75;101772.97;4922196;29;20529;-63
2023/07/18 11:22:07;;;;;;;4.53;0.63;;;;;;;26.76;39.47;101778.59;4920543;29;20496;-64